Time;durP1;ratioP1;P1;durP2;ratioP2;P2;SDS_P1;SDS_P2;PMS_P1;PMS_P2;Temp;Humidity;BMP_temperature;BMP_pressure;BME280_temperature;BME280_humidity;BME280_pressure;Samples;Min_cycle;Max_cycle;Signal;HPM_P1;HPM_P2
2023/04/29 00:00:40;;;;;;;36.72;20.67;;;9.10;99.90;;;;;;4981857;28;20041;-79
2023/04/29 00:03:07;;;;;;;39.25;22.88;;;9.10;99.90;;;;;;4979920;28;20108;-79
2023/04/29 00:05:32;;;;;;;32.53;20.80;;;9.10;99.90;;;;;;4967067;28;20046;-79
2023/04/29 00:07:58;;;;;;;33.70;21.00;;;9.10;99.90;;;;;;4980694;28;20042;-79
2023/04/29 00:10:24;;;;;;;38.67;21.10;;;9.10;99.90;;;;;;4963126;28;20038;-79
2023/04/29 00:12:50;;;;;;;36.85;21.67;;;9.10;99.90;;;;;;4975204;28;20506;-79
2023/04/29 00:15:17;;;;;;;34.30;20.48;;;9.10;99.90;;;;;;4978827;28;20039;-79
2023/04/29 00:17:43;;;;;;;33.85;20.73;;;9.10;99.90;;;;;;4981027;28;20125;-79
2023/04/29 00:20:10;;;;;;;38.50;21.13;;;9.10;99.90;;;;;;4964606;28;20130;-79
2023/04/29 00:22:37;;;;;;;43.65;20.65;;;9.10;99.90;;;;;;4984089;28;20452;-79
2023/04/29 00:25:04;;;;;;;45.15;20.40;;;9.10;99.90;;;;;;4997779;28;20525;-79
2023/04/29 00:27:32;;;;;;;36.67;19.63;;;9.10;99.90;;;;;;4981751;28;20053;-79
2023/04/29 00:29:58;;;;;;;41.75;20.40;;;9.10;99.90;;;;;;4979029;28;20045;-79
2023/04/29 00:32:24;;;;;;;30.75;19.70;;;9.10;99.90;;;;;;4979289;28;20046;-79
2023/04/29 00:34:50;;;;;;;41.22;21.23;;;9.10;99.90;;;;;;4980283;28;20038;-79
2023/04/29 00:37:16;;;;;;;36.45;20.60;;;9.10;99.90;;;;;;4978536;28;20118;-79
2023/04/29 00:39:42;;;;;;;34.45;19.38;;;9.10;99.90;;;;;;4978828;28;20043;-79
2023/04/29 00:42:09;;;;;;;29.75;19.70;;;9.00;99.90;;;;;;4978980;28;20528;-78
2023/04/29 00:44:35;;;;;;;37.38;19.20;;;9.00;99.90;;;;;;4981742;28;20073;-79
2023/04/29 00:47:00;;;;;;;37.47;19.52;;;9.00;99.90;;;;;;4979539;28;20065;-79
2023/04/29 00:49:26;;;;;;;39.72;19.30;;;9.00;99.90;;;;;;4980913;28;20105;-79
2023/04/29 00:51:55;;;;;;;32.60;20.55;;;9.00;99.90;;;;;;4980234;28;20042;-79
2023/04/29 00:54:20;;;;;;;38.67;19.75;;;9.00;99.90;;;;;;4976912;28;22050;-78
2023/04/29 00:56:47;;;;;;;39.53;19.70;;;8.90;99.90;;;;;;4975615;28;20242;-79
2023/04/29 00:59:15;;;;;;;41.08;20.02;;;8.90;99.90;;;;;;4983036;28;20043;-79
2023/04/29 01:01:41;;;;;;;43.70;21.05;;;8.90;99.90;;;;;;4979967;28;20093;-79
2023/04/29 01:04:07;;;;;;;37.22;19.50;;;8.90;99.90;;;;;;4977615;28;20465;-79
2023/04/29 01:06:39;;;;;;;39.25;20.85;;;8.90;99.90;;;;;;4976868;28;20129;-78
2023/04/29 01:09:24;;;;;;;40.30;19.73;;;8.80;99.90;;;;;;4979167;28;20050;-79
2023/04/29 01:12:20;;;;;;;36.10;20.40;;;8.80;99.90;;;;;;4978663;28;20050;-78
2023/04/29 01:15:01;;;;;;;37.45;20.65;;;8.70;99.90;;;;;;4955258;28;20137;-79
2023/04/29 01:17:30;;;;;;;35.45;19.30;;;8.80;99.90;;;;;;4959749;28;20053;-79
2023/04/29 01:19:57;;;;;;;36.55;20.63;;;8.70;99.90;;;;;;4977799;28;20379;-78
2023/04/29 01:22:23;;;;;;;38.65;18.90;;;8.70;99.90;;;;;;4980434;28;20046;-79
2023/04/29 01:24:49;;;;;;;36.85;20.85;;;8.70;99.90;;;;;;4982889;28;20720;-79
2023/04/29 01:27:41;;;;;;;36.15;20.30;;;8.60;99.90;;;;;;4968954;28;20528;-79
2023/04/29 01:30:20;;;;;;;36.97;20.25;;;8.70;99.90;;;;;;4978220;28;20428;-79
2023/04/29 01:32:57;;;;;;;40.58;20.67;;;8.70;99.90;;;;;;4984399;28;20050;-79
2023/04/29 01:35:51;;;;;;;35.80;20.92;;;8.70;99.90;;;;;;4983889;28;20517;-79
2023/04/29 01:38:25;;;;;;;35.70;20.88;;;8.70;99.90;;;;;;4983923;28;20038;-79
2023/04/29 01:41:17;;;;;;;41.05;22.80;;;8.60;99.90;;;;;;4982691;28;20506;-79
2023/04/29 01:43:47;;;;;;;48.30;23.45;;;8.60;99.90;;;;;;4983250;28;20331;-79
2023/04/29 01:46:17;;;;;;;39.10;24.70;;;8.70;99.90;;;;;;4980123;28;21156;-79
2023/04/29 01:48:43;;;;;;;44.53;24.50;;;8.70;99.90;;;;;;4981353;28;20056;-79
2023/04/29 01:51:10;;;;;;;40.38;24.63;;;8.70;99.90;;;;;;4979448;28;20054;-79
2023/04/29 01:53:35;;;;;;;47.42;27.10;;;8.70;99.90;;;;;;4961864;28;20100;-79
2023/04/29 01:56:01;;;;;;;51.65;26.75;;;8.60;99.90;;;;;;4980443;28;20042;-78
2023/04/29 01:58:27;;;;;;;43.15;26.55;;;8.70;99.90;;;;;;4982474;28;20437;-79
2023/04/29 02:00:54;;;;;;;54.13;28.60;;;8.70;99.90;;;;;;4981188;28;20116;-78
2023/04/29 02:03:19;;;;;;;48.83;28.48;;;8.70;99.90;;;;;;4964774;28;20149;-79
2023/04/29 02:05:45;;;;;;;45.50;27.40;;;8.70;99.90;;;;;;4978024;28;20122;-79
2023/04/29 02:08:11;;;;;;;47.95;29.15;;;8.70;99.90;;;;;;4990811;28;20050;-79
2023/04/29 02:10:37;;;;;;;49.47;27.90;;;8.70;99.90;;;;;;5002568;28;20216;-79
2023/04/29 02:13:03;;;;;;;44.45;27.55;;;8.70;99.90;;;;;;4980432;28;20247;-79
2023/04/29 02:15:28;;;;;;;51.78;28.80;;;8.70;99.90;;;;;;4962229;28;20100;-79
2023/04/29 02:17:54;;;;;;;46.17;25.98;;;8.70;99.90;;;;;;4983555;28;20042;-79
2023/04/29 02:20:20;;;;;;;45.05;26.27;;;8.70;99.90;;;;;;4985703;28;20054;-79
2023/04/29 02:22:46;;;;;;;52.25;26.33;;;8.70;99.90;;;;;;4988063;28;21079;-79
2023/04/29 02:25:11;;;;;;;47.97;25.42;;;8.70;99.90;;;;;;4982512;28;20041;-78
2023/04/29 02:27:37;;;;;;;45.45;24.08;;;8.70;99.90;;;;;;4962181;28;20069;-79
2023/04/29 02:30:03;;;;;;;43.22;23.58;;;8.70;99.90;;;;;;4982494;28;20446;-79
2023/04/29 02:32:30;;;;;;;40.47;22.35;;;8.80;99.90;;;;;;4961468;28;20486;-79
2023/04/29 02:34:55;;;;;;;38.78;22.33;;;8.80;99.90;;;;;;4977527;28;20043;-79
2023/04/29 02:37:21;;;;;;;40.30;22.20;;;8.70;99.90;;;;;;4983349;28;20042;-78
2023/04/29 02:39:47;;;;;;;36.70;21.63;;;8.70;99.90;;;;;;4982645;28;20038;-79
2023/04/29 02:42:13;;;;;;;38.53;22.02;;;8.70;99.90;;;;;;4980085;28;20057;-79
2023/04/29 02:44:40;;;;;;;40.88;23.15;;;8.80;99.90;;;;;;4982641;28;20045;-78
2023/04/29 02:47:05;;;;;;;37.72;21.33;;;8.70;99.90;;;;;;4961554;28;20050;-79
2023/04/29 02:49:31;;;;;;;39.33;20.83;;;8.80;99.90;;;;;;4980623;28;20089;-79
2023/04/29 02:51:57;;;;;;;38.28;20.63;;;8.70;99.90;;;;;;4976961;28;20042;-80
2023/04/29 02:54:23;;;;;;;37.38;21.58;;;8.70;99.90;;;;;;4977761;28;20065;-80
2023/04/29 02:56:48;;;;;;;37.15;20.10;;;8.70;99.90;;;;;;4977804;28;20508;-79
2023/04/29 02:59:14;;;;;;;42.00;20.30;;;8.70;99.90;;;;;;4977723;28;20419;-79
2023/04/29 03:01:40;;;;;;;38.33;21.08;;;8.70;99.90;;;;;;4979441;28;20390;-80
2023/04/29 03:04:06;;;;;;;37.85;19.15;;;8.70;99.90;;;;;;4978962;28;20125;-79
2023/04/29 03:06:32;;;;;;;35.08;19.45;;;8.70;99.90;;;;;;4980320;28;20060;-80
2023/04/29 03:08:57;;;;;;;38.30;21.20;;;8.70;99.90;;;;;;4968113;28;20035;-79
2023/04/29 03:11:23;;;;;;;41.08;20.65;;;8.70;99.90;;;;;;4992356;28;20494;-79
2023/04/29 03:13:49;;;;;;;38.20;21.25;;;8.70;99.90;;;;;;4979339;28;20050;-79
2023/04/29 03:16:15;;;;;;;43.58;20.73;;;8.70;99.90;;;;;;4981587;28;20042;-79
2023/04/29 03:18:45;;;;;;;35.00;19.45;;;8.70;99.90;;;;;;4984615;28;20046;-79
2023/04/29 03:21:10;;;;;;;36.38;19.83;;;8.70;99.90;;;;;;4978579;28;20046;-79
2023/04/29 03:23:38;;;;;;;41.15;20.83;;;8.70;99.90;;;;;;4982675;28;20042;-80
2023/04/29 03:26:04;;;;;;;43.00;21.15;;;8.70;99.90;;;;;;4977020;28;20043;-79
2023/04/29 03:28:29;;;;;;;42.42;21.42;;;8.70;99.90;;;;;;4986400;28;20088;-79
2023/04/29 03:30:56;;;;;;;41.00;21.35;;;8.80;99.90;;;;;;4972537;28;20039;-79
2023/04/29 03:33:21;;;;;;;41.30;23.15;;;8.80;99.90;;;;;;4980468;28;20053;-79
2023/04/29 03:35:47;;;;;;;42.20;23.20;;;8.70;99.90;;;;;;4975118;28;20410;-79
2023/04/29 03:38:13;;;;;;;42.25;22.02;;;8.80;99.90;;;;;;4966274;28;20528;-79
2023/04/29 03:40:39;;;;;;;43.10;21.38;;;8.80;99.90;;;;;;4981653;28;20142;-79
2023/04/29 03:43:05;;;;;;;38.65;20.23;;;8.80;99.90;;;;;;4982946;28;20085;-78
2023/04/29 03:45:31;;;;;;;41.80;20.67;;;8.80;99.90;;;;;;4981577;28;20616;-78
2023/04/29 03:47:57;;;;;;;35.22;17.45;;;8.80;99.90;;;;;;4983148;28;20047;-78
2023/04/29 03:50:23;;;;;;;36.60;16.45;;;8.80;99.90;;;;;;4966994;28;20192;-78
2023/04/29 03:52:48;;;;;;;37.22;17.50;;;8.80;99.90;;;;;;4980191;28;20113;-77
2023/04/29 03:55:14;;;;;;;32.10;15.18;;;8.80;99.90;;;;;;4985988;28;20046;-78
2023/04/29 03:57:40;;;;;;;31.30;14.73;;;8.80;99.90;;;;;;4982520;28;20085;-77
2023/04/29 04:00:06;;;;;;;32.05;15.00;;;8.70;99.90;;;;;;4980430;28;20042;-77
2023/04/29 04:02:32;;;;;;;34.72;14.20;;;8.70;99.90;;;;;;4982688;28;20046;-79
2023/04/29 04:04:58;;;;;;;28.13;14.07;;;8.80;99.90;;;;;;4983429;28;20437;-79
2023/04/29 04:07:23;;;;;;;26.88;12.80;;;8.70;99.90;;;;;;4981413;28;20097;-79
2023/04/29 04:09:49;;;;;;;27.40;14.27;;;8.80;99.90;;;;;;4983235;28;20413;-79
2023/04/29 04:12:14;;;;;;;25.38;13.18;;;8.80;99.90;;;;;;4979740;28;20093;-79
2023/04/29 04:14:41;;;;;;;19.83;11.77;;;8.70;99.90;;;;;;4980819;28;20862;-79
2023/04/29 04:17:06;;;;;;;25.23;12.55;;;8.70;99.90;;;;;;4983171;28;20042;-79
2023/04/29 04:19:32;;;;;;;32.70;13.82;;;8.70;99.90;;;;;;5000242;28;20042;-79
2023/04/29 04:21:58;;;;;;;25.02;13.23;;;8.80;99.90;;;;;;4984522;28;20177;-79
2023/04/29 04:24:23;;;;;;;28.88;13.40;;;8.70;99.90;;;;;;4982909;28;20038;-77
2023/04/29 04:26:49;;;;;;;23.52;12.73;;;8.70;99.90;;;;;;4984015;28;20046;-78
2023/04/29 04:29:15;;;;;;;27.13;12.75;;;8.80;99.90;;;;;;4984892;28;20045;-77
2023/04/29 04:31:41;;;;;;;26.33;12.57;;;8.70;99.90;;;;;;4998261;28;20043;-78
2023/04/29 04:34:06;;;;;;;22.85;11.63;;;8.70;99.90;;;;;;4985740;28;20042;-78
2023/04/29 04:36:32;;;;;;;24.65;11.27;;;8.70;99.90;;;;;;4984205;28;20094;-78
2023/04/29 04:38:58;;;;;;;21.23;10.40;;;8.70;99.90;;;;;;4983370;28;20034;-77
2023/04/29 04:41:23;;;;;;;25.83;11.57;;;8.60;99.90;;;;;;4982646;28;20169;-79
2023/04/29 04:43:49;;;;;;;21.95;10.55;;;8.60;99.90;;;;;;4987006;28;20038;-77
2023/04/29 04:46:16;;;;;;;20.45;10.48;;;8.60;99.90;;;;;;4979982;28;20043;-78
2023/04/29 04:48:42;;;;;;;28.95;10.77;;;8.60;99.90;;;;;;4968244;28;20041;-79
2023/04/29 04:51:12;;;;;;;29.17;11.30;;;8.50;99.90;;;;;;4977362;28;20058;-78
2023/04/29 04:53:38;;;;;;;19.20;9.88;;;8.50;99.90;;;;;;4978882;28;20051;-79
2023/04/29 04:56:05;;;;;;;20.02;9.13;;;8.50;99.90;;;;;;4983158;28;20046;-78
2023/04/29 04:58:31;;;;;;;26.02;10.25;;;8.40;99.90;;;;;;4985546;28;20058;-79
2023/04/29 05:00:57;;;;;;;26.90;10.45;;;8.40;99.90;;;;;;4985688;28;20046;-79
2023/04/29 05:03:23;;;;;;;22.65;10.38;;;8.40;99.90;;;;;;4985271;28;20039;-77
2023/04/29 05:05:56;;;;;;;17.42;9.30;;;8.40;99.90;;;;;;4988279;28;20210;-77
2023/04/29 05:08:21;;;;;;;17.98;9.65;;;8.40;99.90;;;;;;4986791;28;20122;-79
2023/04/29 05:10:47;;;;;;;19.75;10.23;;;8.40;99.90;;;;;;4968083;28;20124;-78
2023/04/29 05:13:13;;;;;;;20.15;9.90;;;8.50;99.90;;;;;;4986429;28;20054;-78
2023/04/29 05:15:38;;;;;;;20.65;9.52;;;8.50;99.90;;;;;;4981641;28;20042;-78
2023/04/29 05:18:04;;;;;;;18.55;9.13;;;8.60;99.90;;;;;;4986601;28;20054;-78
2023/04/29 05:20:30;;;;;;;23.05;9.55;;;8.60;99.90;;;;;;4985038;28;20702;-79
2023/04/29 05:22:55;;;;;;;18.95;9.25;;;8.70;99.90;;;;;;4985985;28;20080;-78
2023/04/29 05:25:21;;;;;;;18.48;8.98;;;8.70;99.90;;;;;;4968052;28;20045;-78
2023/04/29 05:27:47;;;;;;;20.98;9.55;;;8.80;99.90;;;;;;4987403;28;22735;-78
2023/04/29 05:30:12;;;;;;;22.27;9.40;;;8.90;99.90;;;;;;4987107;28;20043;-78
2023/04/29 05:32:38;;;;;;;22.83;9.27;;;8.90;99.90;;;;;;4989439;28;20042;-78
2023/04/29 05:35:04;;;;;;;18.35;8.05;;;9.00;99.90;;;;;;4984145;28;20049;-78
2023/04/29 05:37:30;;;;;;;19.95;8.55;;;9.10;99.90;;;;;;4986505;28;20069;-78
2023/04/29 05:39:57;;;;;;;18.60;9.32;;;9.20;99.90;;;;;;5000803;28;20501;-78
2023/04/29 05:42:23;;;;;;;15.07;8.13;;;9.30;99.90;;;;;;4987107;28;20050;-78
2023/04/29 05:44:49;;;;;;;15.32;8.18;;;9.40;99.90;;;;;;4983464;28;20044;-78
2023/04/29 05:47:15;;;;;;;17.73;8.40;;;9.50;99.90;;;;;;4966980;28;20048;-78
2023/04/29 05:49:40;;;;;;;21.40;8.45;;;9.50;99.90;;;;;;4986306;28;20710;-78
2023/04/29 05:52:06;;;;;;;16.75;8.00;;;9.60;99.90;;;;;;4985185;28;20047;-78
2023/04/29 05:54:32;;;;;;;16.10;7.93;;;9.70;99.90;;;;;;4984985;28;20082;-77
2023/04/29 05:57:01;;;;;;;16.25;8.32;;;9.80;99.90;;;;;;4984820;28;20054;-78
2023/04/29 05:59:29;;;;;;;17.50;8.25;;;9.80;99.90;;;;;;4997174;28;20805;-79
2023/04/29 06:01:55;;;;;;;19.55;7.47;;;9.90;99.90;;;;;;4995288;28;20038;-78
2023/04/29 06:04:20;;;;;;;17.70;8.05;;;10.00;99.90;;;;;;4978736;28;20417;-78
2023/04/29 06:06:46;;;;;;;17.85;8.93;;;10.10;99.90;;;;;;4981005;28;20043;-77
2023/04/29 06:09:14;;;;;;;18.65;8.32;;;10.20;99.90;;;;;;4982248;28;20054;-79
2023/04/29 06:11:40;;;;;;;17.65;7.75;;;10.30;99.90;;;;;;4997317;28;20046;-78
2023/04/29 06:14:05;;;;;;;23.67;7.70;;;10.40;99.90;;;;;;4984190;28;20115;-78
2023/04/29 06:16:32;;;;;;;20.70;8.32;;;10.50;99.90;;;;;;4984444;28;20490;-78
2023/04/29 06:18:57;;;;;;;17.17;8.23;;;10.60;99.90;;;;;;4978124;28;20050;-79
2023/04/29 06:21:23;;;;;;;17.25;7.78;;;10.70;99.90;;;;;;4978794;28;20689;-77
2023/04/29 06:23:49;;;;;;;15.88;7.25;;;10.70;99.90;;;;;;4983457;28;20054;-77
2023/04/29 06:26:15;;;;;;;16.13;7.68;;;10.80;99.90;;;;;;4981831;28;20049;-79
2023/04/29 06:28:40;;;;;;;17.40;7.55;;;11.00;99.90;;;;;;4972095;28;20046;-78
2023/04/29 06:31:07;;;;;;;13.18;6.43;;;11.00;99.90;;;;;;4977361;28;20057;-78
2023/04/29 06:33:33;;;;;;;17.90;6.38;;;11.10;99.90;;;;;;4984343;28;20475;-79
2023/04/29 06:35:58;;;;;;;13.07;5.78;;;11.10;99.90;;;;;;4984697;28;20047;-77
2023/04/29 06:38:24;;;;;;;14.57;6.28;;;11.20;99.90;;;;;;4998413;28;20125;-78
2023/04/29 06:40:50;;;;;;;14.15;6.05;;;11.20;99.90;;;;;;4978628;28;20429;-78
2023/04/29 06:43:15;;;;;;;14.48;5.97;;;11.30;99.90;;;;;;4979915;28;20034;-77
2023/04/29 06:45:45;;;;;;;12.88;5.93;;;11.40;99.90;;;;;;4973134;28;20872;-78
2023/04/29 06:48:10;;;;;;;14.82;6.47;;;11.40;99.90;;;;;;4977460;28;20593;-78
2023/04/29 06:50:36;;;;;;;15.10;6.32;;;11.50;99.90;;;;;;4980214;28;20144;-78
2023/04/29 06:53:02;;;;;;;15.45;6.30;;;11.50;99.90;;;;;;4959740;28;20046;-78
2023/04/29 06:55:27;;;;;;;13.45;6.70;;;11.60;99.90;;;;;;4982680;28;20057;-79
2023/04/29 06:57:53;;;;;;;15.23;6.07;;;11.60;99.90;;;;;;4979823;28;20421;-77
2023/04/29 07:00:21;;;;;;;12.65;6.25;;;11.60;99.90;;;;;;4982023;28;20125;-77
2023/04/29 07:02:47;;;;;;;12.95;6.55;;;11.60;99.90;;;;;;4982911;28;20050;-78
2023/04/29 07:05:12;;;;;;;12.23;6.40;;;11.70;99.90;;;;;;4980652;28;20054;-72
2023/04/29 07:07:38;;;;;;;14.88;6.28;;;11.70;99.90;;;;;;4981935;28;20509;-74
2023/04/29 07:10:04;;;;;;;15.75;6.75;;;11.80;99.90;;;;;;4960073;28;20042;-74
2023/04/29 07:12:30;;;;;;;14.35;6.05;;;12.00;99.90;;;;;;4974140;28;20096;-74
2023/04/29 07:14:57;;;;;;;10.55;6.10;;;12.10;99.90;;;;;;4981845;28;20058;-74
2023/04/29 07:17:22;;;;;;;17.50;6.18;;;12.10;99.90;;;;;;4980506;28;20047;-74
2023/04/29 07:19:48;;;;;;;15.43;5.60;;;12.20;99.90;;;;;;4981560;28;20050;-74
2023/04/29 07:22:13;;;;;;;14.35;6.47;;;12.20;99.90;;;;;;4998401;28;20074;-74
2023/04/29 07:24:40;;;;;;;12.15;5.03;;;12.30;99.90;;;;;;4967560;28;20050;-74
2023/04/29 07:27:06;;;;;;;9.43;5.00;;;12.30;99.90;;;;;;4979937;28;20047;-75
2023/04/29 07:29:32;;;;;;;11.65;5.78;;;12.40;99.90;;;;;;4984606;28;20051;-74
2023/04/29 07:31:58;;;;;;;12.52;5.53;;;12.40;99.90;;;;;;4985410;28;20240;-74
2023/04/29 07:34:24;;;;;;;17.48;5.60;;;12.50;99.90;;;;;;4967060;28;20384;-75
2023/04/29 07:36:49;;;;;;;11.48;4.95;;;12.50;99.90;;;;;;4979542;28;20045;-73
2023/04/29 07:39:15;;;;;;;10.60;5.10;;;12.50;99.90;;;;;;4978481;28;20057;-75
2023/04/29 07:41:41;;;;;;;13.63;6.00;;;12.50;99.90;;;;;;4981574;28;20042;-74
2023/04/29 07:44:07;;;;;;;12.50;5.28;;;12.60;99.90;;;;;;4978948;28;20058;-74
2023/04/29 07:46:32;;;;;;;12.32;5.32;;;12.60;99.90;;;;;;4976702;28;20077;-74
2023/04/29 07:48:58;;;;;;;8.70;4.57;;;12.70;99.90;;;;;;4994290;28;20405;-74
2023/04/29 07:51:23;;;;;;;9.05;5.05;;;12.70;99.90;;;;;;4980276;28;20397;-74
2023/04/29 07:53:49;;;;;;;9.65;4.88;;;12.80;99.90;;;;;;4978894;28;20053;-74
2023/04/29 07:56:15;;;;;;;17.83;5.07;;;12.90;99.90;;;;;;4967191;28;20038;-75
2023/04/29 07:58:40;;;;;;;11.15;5.07;;;13.10;99.90;;;;;;4983737;28;20379;-74
2023/04/29 08:01:10;;;;;;;10.43;5.55;;;13.20;99.90;;;;;;4981820;28;20569;-75
2023/04/29 08:03:36;;;;;;;8.50;6.13;;;13.30;99.90;;;;;;4982850;28;20413;-74
2023/04/29 08:06:06;;;;;;;11.68;6.13;;;13.40;99.90;;;;;;4981619;28;20038;-74
2023/04/29 08:08:32;;;;;;;11.45;5.88;;;13.50;99.90;;;;;;4980419;28;20038;-74
2023/04/29 08:10:58;;;;;;;11.63;6.47;;;13.60;99.90;;;;;;4980892;28;20494;-74
2023/04/29 08:13:24;;;;;;;11.60;5.70;;;13.70;99.90;;;;;;4979627;28;20049;-75
2023/04/29 08:15:50;;;;;;;9.23;6.20;;;13.70;99.90;;;;;;4983762;28;20084;-75
2023/04/29 08:18:16;;;;;;;11.15;5.50;;;13.70;99.90;;;;;;4985053;28;20050;-75
2023/04/29 08:20:41;;;;;;;11.35;6.03;;;13.80;99.90;;;;;;4954772;28;20052;-75
2023/04/29 08:23:07;;;;;;;13.38;6.22;;;13.80;99.90;;;;;;4980523;28;20049;-76
2023/04/29 08:25:33;;;;;;;8.88;5.07;;;13.80;99.90;;;;;;4984647;28;20038;-75
2023/04/29 08:27:58;;;;;;;10.57;5.45;;;13.90;99.90;;;;;;4979007;28;20039;-75
2023/04/29 08:30:24;;;;;;;9.50;5.60;;;13.90;99.90;;;;;;4979458;28;21296;-75
2023/04/29 08:32:50;;;;;;;12.23;6.55;;;14.10;99.90;;;;;;4982320;28;20090;-74
2023/04/29 08:35:16;;;;;;;13.38;6.80;;;14.20;99.90;;;;;;4979777;28;20034;-75
2023/04/29 08:37:42;;;;;;;15.57;6.88;;;14.20;99.90;;;;;;4971924;28;20042;-75
2023/04/29 08:40:08;;;;;;;11.77;5.80;;;14.30;99.90;;;;;;4984692;28;20046;-75
2023/04/29 08:42:36;;;;;;;12.43;6.70;;;14.30;99.90;;;;;;4983385;28;20134;-75
2023/04/29 08:45:03;;;;;;;14.27;7.07;;;14.40;99.90;;;;;;4981729;28;20038;-76
2023/04/29 08:47:30;;;;;;;14.43;6.72;;;14.40;99.90;;;;;;4977249;28;20065;-75
2023/04/29 08:49:58;;;;;;;11.30;6.97;;;14.50;99.90;;;;;;4993793;28;20108;-77
2023/04/29 08:52:24;;;;;;;11.15;6.30;;;14.50;99.90;;;;;;4996038;28;20042;-75
2023/04/29 08:54:49;;;;;;;13.02;6.53;;;14.60;99.90;;;;;;4977893;28;20065;-75
2023/04/29 08:57:15;;;;;;;12.73;6.55;;;14.70;99.90;;;;;;4979701;28;20429;-75
2023/04/29 08:59:42;;;;;;;13.48;6.35;;;14.70;99.90;;;;;;4956000;28;20043;-74
2023/04/29 09:02:14;;;;;;;12.10;6.15;;;14.70;99.90;;;;;;4980970;28;20049;-74
2023/04/29 09:05:07;;;;;;;13.95;6.97;;;14.70;99.90;;;;;;4978500;28;20051;-76
2023/04/29 09:07:34;;;;;;;13.98;6.65;;;14.70;99.90;;;;;;4973254;28;20190;-72
2023/04/29 09:10:03;;;;;;;13.70;7.38;;;14.70;99.90;;;;;;4979183;28;20050;-70
2023/04/29 09:12:29;;;;;;;11.55;7.03;;;14.90;99.90;;;;;;4976385;28;20038;-69
2023/04/29 09:14:56;;;;;;;12.38;7.03;;;15.10;99.90;;;;;;4977954;28;20057;-70
2023/04/29 09:17:41;;;;;;;13.00;6.43;;;15.20;99.90;;;;;;4974643;28;20053;-70
2023/04/29 09:20:24;;;;;;;12.30;6.18;;;15.30;99.90;;;;;;4975287;28;20061;-70
2023/04/29 09:22:52;;;;;;;18.00;6.22;;;15.20;99.90;;;;;;4976827;28;20187;-69
2023/04/29 09:25:19;;;;;;;12.18;5.30;;;15.10;99.90;;;;;;4976593;28;20039;-69
2023/04/29 09:27:45;;;;;;;10.02;5.47;;;15.00;99.90;;;;;;4978163;28;20050;-70
2023/04/29 09:30:12;;;;;;;10.68;5.72;;;15.00;99.90;;;;;;4965302;28;20073;-70
2023/04/29 09:32:38;;;;;;;8.68;5.30;;;15.00;99.90;;;;;;4984529;28;20034;-70
2023/04/29 09:35:39;;;;;;;12.43;4.68;;;15.10;99.90;;;;;;4975990;28;20057;-70
2023/04/29 09:38:15;;;;;;;8.40;4.40;;;15.10;99.90;;;;;;4950563;28;20130;-70
2023/04/29 09:40:42;;;;;;;7.95;4.10;;;15.20;99.90;;;;;;4991807;28;20536;-71
2023/04/29 09:43:17;;;;;;;9.70;4.18;;;15.40;99.90;;;;;;4978383;28;20042;-71
2023/04/29 09:45:45;;;;;;;8.02;4.65;;;15.40;99.90;;;;;;4969974;28;20038;-70
2023/04/29 09:48:11;;;;;;;8.77;3.40;;;15.60;99.90;;;;;;4974082;28;20050;-70
2023/04/29 09:50:38;;;;;;;7.32;3.33;;;15.70;99.90;;;;;;4979192;28;20046;-70
2023/04/29 09:53:09;;;;;;;7.45;3.83;;;15.80;99.90;;;;;;4958840;28;20056;-71
2023/04/29 09:55:36;;;;;;;8.63;3.85;;;15.80;99.90;;;;;;4975204;28;20077;-72
2023/04/29 09:58:01;;;;;;;7.40;3.55;;;15.90;99.90;;;;;;4976228;28;20042;-72
2023/04/29 10:00:32;;;;;;;10.57;3.40;;;15.90;99.90;;;;;;4977267;28;20053;-72
2023/04/29 10:03:03;;;;;;;6.95;3.33;;;15.90;99.90;;;;;;4973174;28;20141;-72
2023/04/29 10:05:29;;;;;;;9.43;3.25;;;15.80;99.90;;;;;;4966245;28;20110;-71
2023/04/29 10:07:57;;;;;;;8.13;3.67;;;15.70;99.90;;;;;;4970462;28;20093;-72
2023/04/29 10:10:23;;;;;;;8.85;3.90;;;15.60;99.90;;;;;;4972356;28;20108;-71
2023/04/29 10:12:52;;;;;;;6.80;2.25;;;15.70;99.90;;;;;;4969981;28;20076;-72
2023/04/29 10:15:27;;;;;;;5.55;2.20;;;15.40;99.90;;;;;;4975024;28;20046;-72
2023/04/29 10:18:11;;;;;;;6.20;2.88;;;15.30;99.90;;;;;;4983350;28;20339;-72
2023/04/29 10:20:39;;;;;;;9.35;3.20;;;15.30;99.90;;;;;;4974845;28;20403;-72
2023/04/29 10:23:06;;;;;;;5.95;2.90;;;15.40;99.90;;;;;;4981609;28;20046;-73
2023/04/29 10:25:35;;;;;;;7.93;2.42;;;15.30;99.90;;;;;;4977778;28;20084;-72
2023/04/29 10:28:03;;;;;;;8.75;2.65;;;15.40;99.90;;;;;;4981648;28;20058;-72
2023/04/29 10:30:30;;;;;;;3.67;2.35;;;15.50;99.90;;;;;;4947530;28;22166;-71
2023/04/29 10:32:58;;;;;;;7.65;3.00;;;15.50;99.90;;;;;;4982613;28;20066;-71
2023/04/29 10:35:24;;;;;;;9.18;3.58;;;15.60;99.90;;;;;;4959331;28;20046;-72
2023/04/29 10:37:51;;;;;;;3.72;2.30;;;15.70;99.90;;;;;;4974706;28;20050;-73
2023/04/29 10:40:35;;;;;;;7.70;2.78;;;15.70;99.90;;;;;;4977098;28;20842;-73
2023/04/29 10:43:01;;;;;;;5.07;2.45;;;15.70;99.90;;;;;;4979767;28;20192;-72
2023/04/29 10:45:33;;;;;;;3.90;2.05;;;15.70;99.90;;;;;;4979049;28;20058;-77
2023/04/29 10:48:05;;;;;;;4.82;2.30;;;15.70;99.90;;;;;;4980026;28;20649;-77
2023/04/29 10:50:46;;;;;;;5.75;2.28;;;15.70;99.90;;;;;;4982330;28;20077;-77
2023/04/29 10:53:13;;;;;;;5.15;2.17;;;15.60;99.90;;;;;;4966146;28;20058;-77
2023/04/29 10:55:40;;;;;;;6.07;2.42;;;15.50;99.90;;;;;;4986374;28;20264;-77
2023/04/29 10:58:34;;;;;;;5.88;1.80;;;15.50;99.90;;;;;;4984004;28;20493;-77
2023/04/29 11:01:00;;;;;;;6.03;2.45;;;15.50;99.90;;;;;;4962807;28;20486;-77
2023/04/29 11:03:49;;;;;;;5.15;2.60;;;15.30;99.90;;;;;;4992523;28;20054;-77
2023/04/29 11:06:15;;;;;;;6.32;2.55;;;15.10;99.90;;;;;;4981115;28;20609;-76
2023/04/29 11:08:44;;;;;;;8.05;3.30;;;15.30;99.90;;;;;;4977878;28;20310;-76
2023/04/29 11:11:12;;;;;;;8.43;3.85;;;15.30;99.90;;;;;;4979722;28;20054;-76
2023/04/29 11:13:39;;;;;;;8.23;2.70;;;15.30;99.90;;;;;;4981484;28;20051;-76
2023/04/29 11:16:09;;;;;;;7.88;2.53;;;15.40;99.90;;;;;;4981263;28;20054;-74
2023/04/29 11:18:56;;;;;;;7.47;2.45;;;15.20;99.90;;;;;;4980007;28;20065;-76
2023/04/29 11:21:22;;;;;;;5.15;2.30;;;15.10;99.90;;;;;;4973763;28;20066;-76
2023/04/29 11:23:50;;;;;;;6.75;2.85;;;15.30;99.90;;;;;;4968928;28;20125;-76
2023/04/29 11:26:19;;;;;;;8.18;2.90;;;15.30;99.90;;;;;;4976288;28;20506;-75
2023/04/29 11:28:45;;;;;;;10.48;2.75;;;15.40;99.90;;;;;;4976607;28;20046;-75
2023/04/29 11:31:11;;;;;;;5.68;2.72;;;15.50;99.90;;;;;;4974969;28;20053;-75
2023/04/29 11:33:37;;;;;;;7.30;2.78;;;15.60;99.90;;;;;;4983276;28;20060;-76
2023/04/29 11:36:03;;;;;;;9.23;3.25;;;15.60;99.90;;;;;;4970927;28;21477;-76
2023/04/29 11:38:29;;;;;;;5.50;2.63;;;15.60;99.90;;;;;;4982044;28;20093;-75
2023/04/29 11:40:56;;;;;;;5.95;2.40;;;15.60;99.90;;;;;;4983120;28;20043;-76
2023/04/29 11:43:23;;;;;;;7.53;2.38;;;15.50;99.90;;;;;;4976278;28;20042;-75
2023/04/29 11:45:50;;;;;;;6.88;2.38;;;15.50;99.90;;;;;;4968908;28;20046;-73
2023/04/29 11:48:20;;;;;;;7.25;2.53;;;15.40;99.90;;;;;;4978462;28;20057;-73
2023/04/29 11:50:47;;;;;;;4.80;2.03;;;15.50;99.90;;;;;;4983183;28;20125;-71
2023/04/29 11:53:13;;;;;;;7.55;2.53;;;15.60;99.90;;;;;;4992859;28;20066;-71
2023/04/29 11:55:42;;;;;;;10.23;2.75;;;15.70;99.90;;;;;;4978455;28;20077;-72
2023/04/29 11:58:08;;;;;;;8.23;1.88;;;15.90;99.90;;;;;;4973893;28;20474;-71
2023/04/29 12:00:34;;;;;;;4.80;1.52;;;15.90;99.90;;;;;;4968598;28;20066;-72
2023/04/29 12:03:00;;;;;;;6.97;2.35;;;15.90;99.90;;;;;;4975787;28;20974;-71
2023/04/29 12:05:28;;;;;;;6.78;2.25;;;16.00;99.90;;;;;;4978543;28;20046;-71
2023/04/29 12:07:54;;;;;;;6.55;2.40;;;16.20;99.90;;;;;;4980391;28;20050;-71
2023/04/29 12:10:20;;;;;;;6.22;2.22;;;16.30;99.90;;;;;;4970911;28;20061;-72
2023/04/29 12:12:47;;;;;;;3.67;1.70;;;16.30;99.90;;;;;;4972265;28;20053;-75
2023/04/29 12:15:13;;;;;;;4.97;1.73;;;16.30;99.90;;;;;;4976452;28;20171;-72
2023/04/29 12:17:38;;;;;;;3.95;1.70;;;16.40;99.90;;;;;;4979711;28;20050;-73
2023/04/29 12:20:09;;;;;;;5.55;1.60;;;16.50;99.90;;;;;;4961980;28;20116;-72
2023/04/29 12:22:35;;;;;;;6.45;2.05;;;16.60;99.90;;;;;;4975672;28;20043;-72
2023/04/29 12:25:04;;;;;;;6.25;1.95;;;16.70;99.90;;;;;;4980207;28;20062;-72
2023/04/29 12:27:31;;;;;;;3.28;1.95;;;16.80;99.90;;;;;;4980966;28;20043;-73
2023/04/29 12:29:57;;;;;;;5.00;2.10;;;16.80;99.90;;;;;;4975276;28;20046;-72
2023/04/29 12:32:24;;;;;;;3.65;1.50;;;16.80;99.90;;;;;;4973728;28;20069;-72
2023/04/29 12:34:53;;;;;;;3.28;1.20;;;16.80;99.90;;;;;;4991772;28;20403;-73
2023/04/29 12:37:25;;;;;;;2.83;1.70;;;16.80;99.90;;;;;;4978151;28;20694;-76
2023/04/29 12:39:51;;;;;;;4.38;1.48;;;16.80;99.90;;;;;;4977112;28;20065;-75
2023/04/29 12:42:17;;;;;;;3.78;1.60;;;16.70;99.90;;;;;;4973724;28;20050;-75